Time;durP1;ratioP1;P1;durP2;ratioP2;P2;SDS_P1;SDS_P2;PMS_P1;PMS_P2;Temp;Humidity;BMP_temperature;BMP_pressure;BME280_temperature;BME280_humidity;BME280_pressure;Samples;Min_cycle;Max_cycle;Signal;HPM_P1;HPM_P2
2023/03/26 00:01:09;;;;;;;16.17;2.75;;;7.60;99.90;;;;;;5107032;27;20039;-77
2023/03/26 00:03:36;;;;;;;17.98;2.55;;;8.40;99.90;;;;;;5105873;27;20044;-77
2023/03/26 00:06:06;;;;;;;29.73;3.42;;;7.60;99.90;;;;;;5106326;27;20163;-77
2023/03/26 00:08:34;;;;;;;22.83;2.35;;;7.50;99.90;;;;;;5106245;27;20050;-77
2023/03/26 00:11:00;;;;;;;19.98;2.92;;;7.50;99.90;;;;;;5105721;27;20051;-77
2023/03/26 00:13:26;;;;;;;23.17;2.25;;;7.50;99.90;;;;;;5106966;27;20035;-77
2023/03/26 00:15:52;;;;;;;29.55;4.00;;;7.50;99.90;;;;;;5105234;27;20046;-77
2023/03/26 00:18:20;;;;;;;15.93;2.38;;;7.70;99.90;;;;;;5107123;27;20043;-77
2023/03/26 00:20:46;;;;;;;25.00;3.08;;;8.20;99.90;;;;;;5105980;27;20047;-77
2023/03/26 00:23:12;;;;;;;24.70;3.03;;;7.50;99.90;;;;;;5106096;27;20455;-77
2023/03/26 00:25:40;;;;;;;22.50;3.33;;;7.40;99.90;;;;;;5072091;28;20507;-77
2023/03/26 00:28:06;;;;;;;10.32;2.22;;;8.20;99.90;;;;;;5105544;28;20043;-77
2023/03/26 00:30:34;;;;;;;18.25;3.88;;;7.30;99.90;;;;;;5065523;28;20048;-77
2023/03/26 00:33:00;;;;;;;18.52;1.88;;;7.20;99.90;;;;;;5064573;28;20040;-76
2023/03/26 00:35:28;;;;;;;18.67;2.47;;;8.20;99.90;;;;;;5066408;28;20127;-77
2023/03/26 00:37:53;;;;;;;27.05;3.13;;;7.10;99.90;;;;;;5065355;28;20122;-77
2023/03/26 00:40:19;;;;;;;18.98;2.63;;;7.10;99.90;;;;;;5082741;28;20130;-78
2023/03/26 00:42:45;;;;;;;16.23;2.15;;;7.90;99.90;;;;;;5082540;28;20430;-78
2023/03/26 00:45:11;;;;;;;18.38;2.60;;;7.10;99.90;;;;;;5081701;28;20544;-78
2023/03/26 00:47:38;;;;;;;23.27;2.63;;;7.50;99.90;;;;;;5066373;28;20036;-78
2023/03/26 00:50:05;;;;;;;20.83;2.20;;;7.00;99.90;;;;;;5080960;28;20083;-78
2023/03/26 00:52:31;;;;;;;21.88;3.13;;;7.00;99.90;;;;;;5083141;28;20055;-78
2023/03/26 00:54:56;;;;;;;27.75;3.55;;;7.00;99.90;;;;;;5064805;28;20388;-78
2023/03/26 00:57:22;;;;;;;25.02;2.78;;;7.00;99.90;;;;;;5082092;28;20044;-78
2023/03/26 00:59:48;;;;;;;21.10;2.33;;;8.10;99.90;;;;;;5081955;28;20197;-78
2023/03/26 01:02:19;;;;;;;15.40;3.22;;;8.30;99.90;;;;;;5081496;28;20085;-78
2023/03/26 01:04:55;;;;;;;24.05;1.98;;;7.60;99.90;;;;;;5083039;28;20371;-78
2023/03/26 01:07:27;;;;;;;25.80;2.95;;;7.00;99.90;;;;;;5081099;28;20092;-78
2023/03/26 01:09:57;;;;;;;32.83;3.50;;;8.50;99.90;;;;;;5082656;28;20074;-78
2023/03/26 01:12:26;;;;;;;26.05;3.20;;;7.00;99.90;;;;;;5081439;28;20059;-78
2023/03/26 01:14:55;;;;;;;26.95;4.80;;;7.00;99.90;;;;;;5081708;28;20515;-78
2023/03/26 01:17:22;;;;;;;23.77;2.95;;;7.40;99.90;;;;;;5081961;28;20522;-78
2023/03/26 01:20:12;;;;;;;25.95;2.67;;;7.90;99.90;;;;;;5081284;28;20411;-78
2023/03/26 01:22:43;;;;;;;19.85;2.05;;;7.10;99.90;;;;;;5066192;28;20436;-78
2023/03/26 01:25:09;;;;;;;21.70;2.78;;;6.90;99.90;;;;;;5064756;28;20111;-78
2023/03/26 01:27:39;;;;;;;36.83;3.20;;;7.70;99.90;;;;;;5064907;28;20173;-78
2023/03/26 01:30:24;;;;;;;23.42;2.13;;;7.30;99.90;;;;;;5085852;28;20399;-78
2023/03/26 01:32:54;;;;;;;19.10;2.60;;;6.90;99.90;;;;;;5104595;28;20047;-78
2023/03/26 01:35:29;;;;;;;22.10;2.20;;;6.90;99.90;;;;;;5089230;28;20043;-78
2023/03/26 01:38:23;;;;;;;22.42;2.42;;;6.90;99.90;;;;;;5088602;28;20047;-78
2023/03/26 01:40:54;;;;;;;18.77;2.92;;;6.90;99.90;;;;;;5105143;28;20085;-78
2023/03/26 01:43:30;;;;;;;28.77;2.72;;;7.40;99.90;;;;;;5109063;27;20043;-78
2023/03/26 01:46:01;;;;;;;19.10;2.33;;;6.90;99.90;;;;;;5091755;27;20390;-78
2023/03/26 01:48:45;;;;;;;17.50;2.72;;;6.90;99.90;;;;;;5109415;27;20081;-78
2023/03/26 01:51:12;;;;;;;22.52;3.85;;;7.10;99.90;;;;;;5108675;27;20541;-78
2023/03/26 01:53:45;;;;;;;19.08;2.95;;;8.10;99.90;;;;;;5091390;27;20047;-78
2023/03/26 01:56:33;;;;;;;14.60;2.38;;;6.90;99.90;;;;;;5109391;27;20129;-78
2023/03/26 01:59:17;;;;;;;22.38;2.67;;;6.90;99.90;;;;;;5091646;27;20493;-78
2023/03/26 02:02:07;;;;;;;26.17;2.25;;;7.60;99.90;;;;;;5091770;27;20043;-78
2023/03/26 02:04:45;;;;;;;26.00;3.42;;;6.80;99.90;;;;;;5092604;27;20435;-77
2023/03/26 02:07:10;;;;;;;14.27;1.85;;;6.90;99.90;;;;;;5107596;27;20035;-78
2023/03/26 02:09:59;;;;;;;11.85;2.33;;;6.80;99.90;;;;;;5109310;27;20042;-78
2023/03/26 02:12:26;;;;;;;23.88;2.33;;;7.00;99.90;;;;;;5091377;27;20042;-78
2023/03/26 02:14:52;;;;;;;19.40;2.80;;;6.80;99.90;;;;;;5108585;27;20665;-78
2023/03/26 02:17:22;;;;;;;19.17;2.70;;;5.60;99.90;;;;;;5092363;27;20428;-78
2023/03/26 02:19:48;;;;;;;21.92;3.00;;;6.80;99.90;;;;;;5107566;27;20075;-78
2023/03/26 02:22:14;;;;;;;13.52;3.00;;;6.90;99.90;;;;;;5109797;27;20568;-78
2023/03/26 02:24:41;;;;;;;27.70;2.47;;;6.90;99.90;;;;;;5090875;27;20093;-78
2023/03/26 02:27:08;;;;;;;25.20;2.20;;;6.80;99.90;;;;;;5108613;27;20039;-78
2023/03/26 02:29:38;;;;;;;18.85;2.65;;;6.80;99.90;;;;;;5091300;27;20039;-78
2023/03/26 02:32:12;;;;;;;14.77;1.85;;;7.30;99.90;;;;;;5107704;27;20122;-78
2023/03/26 02:34:41;;;;;;;19.23;3.20;;;6.80;99.90;;;;;;5091736;27;20528;-78
2023/03/26 02:37:08;;;;;;;19.27;1.80;;;6.80;99.90;;;;;;5107469;27;20557;-78
2023/03/26 02:39:34;;;;;;;15.05;2.42;;;7.10;99.90;;;;;;5091806;27;20035;-78
2023/03/26 02:42:00;;;;;;;20.80;3.95;;;8.10;99.90;;;;;;5107900;27;20092;-78
2023/03/26 02:44:26;;;;;;;24.77;3.58;;;6.80;99.90;;;;;;5126909;27;20489;-78
2023/03/26 02:46:52;;;;;;;13.77;2.20;;;6.80;99.90;;;;;;5107731;27;20035;-78
2023/03/26 02:49:18;;;;;;;17.63;2.58;;;6.80;99.90;;;;;;5107943;27;20432;-78
2023/03/26 02:51:43;;;;;;;23.45;3.25;;;7.50;99.90;;;;;;5108118;27;20517;-78
2023/03/26 02:54:09;;;;;;;23.48;4.00;;;6.70;99.90;;;;;;5088717;27;20082;-78
2023/03/26 02:56:35;;;;;;;17.42;2.35;;;7.60;99.90;;;;;;5091456;27;20411;-78
2023/03/26 02:59:00;;;;;;;14.70;2.50;;;8.00;99.90;;;;;;5090079;27;20043;-78
2023/03/26 03:01:29;;;;;;;22.65;2.47;;;6.80;99.90;;;;;;5073995;27;20043;-78
2023/03/26 03:03:55;;;;;;;18.63;2.35;;;6.80;99.90;;;;;;5107845;27;20070;-78
2023/03/26 03:06:21;;;;;;;28.45;2.80;;;6.90;99.90;;;;;;5107219;27;20306;-78
2023/03/26 03:08:47;;;;;;;17.35;1.85;;;7.40;99.90;;;;;;5108013;27;20408;-78
2023/03/26 03:11:20;;;;;;;17.55;2.80;;;6.70;99.90;;;;;;5107142;27;20126;-78
2023/03/26 03:13:47;;;;;;;22.40;2.10;;;6.80;99.90;;;;;;5091800;27;20054;-78
2023/03/26 03:16:12;;;;;;;17.80;1.80;;;6.80;99.90;;;;;;5089755;27;20042;-78
2023/03/26 03:18:38;;;;;;;22.10;2.45;;;7.50;99.90;;;;;;5107877;27;20035;-78
2023/03/26 03:21:05;;;;;;;9.55;2.05;;;7.50;99.90;;;;;;5107010;27;20490;-78
2023/03/26 03:23:31;;;;;;;10.82;2.05;;;6.70;99.90;;;;;;5106805;27;20205;-78
2023/03/26 03:25:57;;;;;;;16.08;2.28;;;8.10;99.90;;;;;;5108325;27;20390;-78
2023/03/26 03:28:24;;;;;;;19.98;2.45;;;6.60;99.90;;;;;;5089397;27;20112;-78
2023/03/26 03:30:56;;;;;;;25.27;2.63;;;6.60;99.90;;;;;;5107772;27;20051;-78
2023/03/26 03:33:22;;;;;;;14.65;2.15;;;7.90;99.90;;;;;;5090547;27;20050;-78
2023/03/26 03:35:48;;;;;;;20.80;3.00;;;6.60;99.90;;;;;;5107387;27;20543;-78
2023/03/26 03:38:15;;;;;;;22.70;2.28;;;8.10;99.90;;;;;;5107466;27;20062;-78
2023/03/26 03:40:42;;;;;;;16.13;1.85;;;6.60;99.90;;;;;;5106106;27;20082;-78
2023/03/26 03:43:07;;;;;;;15.80;2.88;;;6.80;99.90;;;;;;5108028;27;20497;-78
2023/03/26 03:45:33;;;;;;;15.98;2.03;;;7.90;99.90;;;;;;5106108;27;20086;-78
2023/03/26 03:47:59;;;;;;;18.08;2.20;;;7.70;99.90;;;;;;5126165;27;20473;-78
2023/03/26 03:50:25;;;;;;;25.48;4.20;;;7.60;99.90;;;;;;5106048;27;20043;-78
2023/03/26 03:52:51;;;;;;;21.83;2.42;;;6.60;99.90;;;;;;5089779;27;20142;-77
2023/03/26 03:55:17;;;;;;;19.23;1.92;;;6.80;99.90;;;;;;5106665;27;20039;-78
2023/03/26 03:57:43;;;;;;;18.50;2.17;;;6.50;99.90;;;;;;5106073;27;20079;-78
2023/03/26 04:00:10;;;;;;;19.80;2.15;;;7.70;99.90;;;;;;5107427;27;20035;-77
2023/03/26 04:02:37;;;;;;;23.95;1.95;;;6.50;99.90;;;;;;5089088;27;20070;-78
2023/03/26 04:05:04;;;;;;;20.45;2.40;;;6.50;99.90;;;;;;5107016;27;20044;-78
2023/03/26 04:07:31;;;;;;;22.83;4.85;;;6.50;99.90;;;;;;5106075;27;20054;-78
2023/03/26 04:09:58;;;;;;;19.40;2.42;;;8.00;99.90;;;;;;5089568;27;20054;-78
2023/03/26 04:12:27;;;;;;;30.85;3.20;;;6.60;99.90;;;;;;5089566;27;20043;-78
2023/03/26 04:14:53;;;;;;;20.77;2.55;;;6.50;99.90;;;;;;5105850;27;20050;-78
2023/03/26 04:17:20;;;;;;;14.40;1.52;;;6.50;99.90;;;;;;5106994;28;20040;-78
2023/03/26 04:19:46;;;;;;;14.38;2.50;;;7.70;99.90;;;;;;5089080;28;20382;-78
2023/03/26 04:22:12;;;;;;;23.33;2.42;;;6.50;99.90;;;;;;5107105;27;20074;-78
2023/03/26 04:24:39;;;;;;;22.63;2.53;;;6.50;99.90;;;;;;5089593;28;20078;-78
2023/03/26 04:27:12;;;;;;;17.92;2.42;;;6.60;99.90;;;;;;5089153;27;20502;-78
2023/03/26 04:29:41;;;;;;;17.45;2.17;;;6.80;99.90;;;;;;5106186;28;20518;-78
2023/03/26 04:32:13;;;;;;;30.02;2.85;;;7.30;99.90;;;;;;5105109;28;20055;-78
2023/03/26 04:34:39;;;;;;;20.98;3.17;;;6.50;99.90;;;;;;5090043;28;20050;-78
2023/03/26 04:37:04;;;;;;;17.10;3.53;;;6.60;99.90;;;;;;5105306;28;20114;-78
2023/03/26 04:39:32;;;;;;;16.65;2.40;;;7.40;99.90;;;;;;5107085;28;20047;-78
2023/03/26 04:41:59;;;;;;;18.83;2.25;;;6.50;99.90;;;;;;5089152;28;20051;-78
2023/03/26 04:44:25;;;;;;;14.43;2.30;;;7.80;99.90;;;;;;5089324;28;20107;-78
2023/03/26 04:46:54;;;;;;;15.05;2.10;;;7.10;99.90;;;;;;5072258;28;20039;-78
2023/03/26 04:49:20;;;;;;;11.02;1.85;;;6.50;99.90;;;;;;5088628;28;20043;-78
2023/03/26 04:51:46;;;;;;;21.23;2.08;;;7.80;99.90;;;;;;5106921;28;20061;-78
2023/03/26 04:54:15;;;;;;;14.60;3.58;;;6.50;99.90;;;;;;5105462;28;20578;-78
2023/03/26 04:56:53;;;;;;;21.30;2.88;;;6.50;99.90;;;;;;5106718;28;20100;-78
2023/03/26 04:59:33;;;;;;;9.63;2.35;;;6.50;99.90;;;;;;5106193;28;20126;-78
2023/03/26 05:02:00;;;;;;;26.80;3.72;;;6.40;99.90;;;;;;5105425;28;20095;-78
2023/03/26 05:04:28;;;;;;;23.38;2.92;;;7.20;99.90;;;;;;5106297;28;20043;-78
2023/03/26 05:06:56;;;;;;;27.40;4.07;;;6.40;99.90;;;;;;5087599;28;20513;-78
2023/03/26 05:09:23;;;;;;;20.02;2.35;;;6.40;99.90;;;;;;5106496;28;20043;-77
2023/03/26 05:11:49;;;;;;;14.45;2.28;;;6.40;99.90;;;;;;5088744;28;20458;-77
2023/03/26 05:14:15;;;;;;;19.15;2.88;;;7.70;99.90;;;;;;5072433;28;20648;-77
2023/03/26 05:16:41;;;;;;;25.83;2.63;;;6.40;99.90;;;;;;5089174;28;20043;-77
2023/03/26 05:19:07;;;;;;;21.33;2.17;;;7.50;99.90;;;;;;5092039;27;20490;-77
2023/03/26 05:21:33;;;;;;;12.18;1.65;;;6.40;99.90;;;;;;5093393;27;20600;-77
2023/03/26 05:24:00;;;;;;;16.95;2.80;;;6.40;99.90;;;;;;5108201;27;20075;-77
2023/03/26 05:26:28;;;;;;;16.73;2.35;;;6.40;99.90;;;;;;5076998;27;20429;-77
2023/03/26 05:28:55;;;;;;;16.48;1.75;;;6.40;99.90;;;;;;5109130;27;20047;-77
2023/03/26 05:31:21;;;;;;;20.05;2.53;;;6.40;99.90;;;;;;5109189;27;20047;-77
2023/03/26 05:33:47;;;;;;;22.55;2.40;;;6.30;99.90;;;;;;5109255;27;20427;-77
2023/03/26 05:36:14;;;;;;;17.48;3.13;;;6.80;99.90;;;;;;5108703;27;20047;-77
2023/03/26 05:38:46;;;;;;;18.88;2.53;;;6.30;99.90;;;;;;5110245;27;20070;-76
2023/03/26 05:41:12;;;;;;;19.23;3.17;;;6.30;99.90;;;;;;5075217;27;20091;-77
2023/03/26 05:43:38;;;;;;;17.95;3.22;;;6.30;99.90;;;;;;5093180;27;20292;-77
2023/03/26 05:46:04;;;;;;;18.50;2.30;;;6.90;99.90;;;;;;5091677;27;20062;-77
2023/03/26 05:48:30;;;;;;;13.85;1.95;;;6.30;99.90;;;;;;5091901;27;20074;-77
2023/03/26 05:50:57;;;;;;;20.98;2.30;;;6.30;99.90;;;;;;5109432;27;20081;-77
2023/03/26 05:53:24;;;;;;;16.92;2.55;;;6.30;99.90;;;;;;5108608;27;20047;-77
2023/03/26 05:55:56;;;;;;;20.40;2.22;;;7.60;99.90;;;;;;5092648;27;20581;-77
2023/03/26 05:58:27;;;;;;;17.20;2.80;;;7.00;99.90;;;;;;5108176;27;20043;-77
2023/03/26 06:01:04;;;;;;;13.48;1.83;;;6.30;99.90;;;;;;5109227;27;20054;-77
2023/03/26 06:03:31;;;;;;;10.52;2.00;;;6.30;99.90;;;;;;5109115;27;20084;-77
2023/03/26 06:05:57;;;;;;;21.05;2.45;;;6.30;99.90;;;;;;5091803;27;20518;-77
2023/03/26 06:08:23;;;;;;;12.82;2.17;;;6.30;99.90;;;;;;5109169;27;20049;-78
2023/03/26 06:10:49;;;;;;;29.08;2.83;;;7.60;99.90;;;;;;5108379;27;20097;-79
2023/03/26 06:13:16;;;;;;;13.27;1.85;;;7.70;99.90;;;;;;5109447;27;20275;-79
2023/03/26 06:15:42;;;;;;;18.95;2.35;;;6.40;99.90;;;;;;5107761;27;20074;-78
2023/03/26 06:18:08;;;;;;;15.93;1.67;;;6.40;99.90;;;;;;5108797;27;20051;-78
2023/03/26 06:20:34;;;;;;;17.77;2.65;;;6.80;99.90;;;;;;5108287;27;20126;-78
2023/03/26 06:23:00;;;;;;;21.70;3.10;;;6.40;99.90;;;;;;5108283;27;20248;-78
2023/03/26 06:25:26;;;;;;;26.10;2.42;;;6.50;99.90;;;;;;5108607;27;20038;-78
2023/03/26 06:27:51;;;;;;;19.98;3.45;;;7.30;99.90;;;;;;5107519;27;20061;-78
2023/03/26 06:30:17;;;;;;;17.58;1.55;;;7.40;99.90;;;;;;5107957;27;20179;-78
2023/03/26 06:32:43;;;;;;;28.10;2.95;;;7.30;99.90;;;;;;5103716;28;20071;-78
2023/03/26 06:35:10;;;;;;;14.13;2.70;;;6.60;99.90;;;;;;5105169;28;20074;-78
2023/03/26 06:37:36;;;;;;;20.67;2.50;;;6.70;99.90;;;;;;5104528;28;20052;-78
2023/03/26 06:40:03;;;;;;;23.15;2.78;;;6.70;99.90;;;;;;5088025;28;20040;-78
2023/03/26 06:42:29;;;;;;;19.02;2.83;;;6.70;99.90;;;;;;5071629;28;20433;-78
2023/03/26 06:44:54;;;;;;;12.15;1.67;;;6.70;99.90;;;;;;5105913;28;20051;-76
2023/03/26 06:47:20;;;;;;;15.95;2.50;;;6.80;99.90;;;;;;5109321;28;20058;-78
2023/03/26 06:49:46;;;;;;;11.30;2.00;;;6.80;99.90;;;;;;5103395;28;20051;-78
2023/03/26 06:52:11;;;;;;;24.25;2.78;;;7.40;99.90;;;;;;5104536;28;20526;-78
2023/03/26 06:54:37;;;;;;;24.58;2.40;;;8.00;99.90;;;;;;5086997;28;20039;-77
2023/03/26 06:57:03;;;;;;;17.38;3.42;;;6.80;99.90;;;;;;5104005;28;20050;-77
2023/03/26 06:59:29;;;;;;;21.90;3.03;;;8.10;99.90;;;;;;5087230;28;20150;-77
2023/03/26 07:01:55;;;;;;;13.90;2.60;;;6.90;99.90;;;;;;5086464;28;20043;-77
2023/03/26 07:04:20;;;;;;;12.40;1.75;;;7.10;99.90;;;;;;5104727;28;20039;-78
2023/03/26 07:06:46;;;;;;;13.13;2.00;;;7.00;99.90;;;;;;5086193;28;20039;-77
2023/03/26 07:09:12;;;;;;;17.92;2.28;;;7.00;99.90;;;;;;5105027;28;20055;-77
2023/03/26 07:11:37;;;;;;;16.70;2.28;;;8.50;99.90;;;;;;5103673;28;20047;-78
2023/03/26 07:14:03;;;;;;;26.30;1.70;;;7.60;99.90;;;;;;5087038;28;20435;-77
2023/03/26 07:16:29;;;;;;;18.83;3.78;;;7.20;99.90;;;;;;5104413;28;20047;-78
2023/03/26 07:18:54;;;;;;;16.13;2.75;;;7.50;99.90;;;;;;5104810;28;20054;-78
2023/03/26 07:21:21;;;;;;;12.65;1.92;;;8.30;99.90;;;;;;5104244;28;20085;-78
2023/03/26 07:23:48;;;;;;;14.60;1.92;;;7.80;99.90;;;;;;5086387;28;20043;-79
2023/03/26 07:26:50;;;;;;;14.82;2.80;;;7.30;99.90;;;;;;5104466;28;20146;-79
2023/03/26 07:29:33;;;;;;;25.48;2.13;;;7.40;99.90;;;;;;5103855;28;20054;-79
2023/03/26 07:32:14;;;;;;;19.08;2.47;;;7.40;99.90;;;;;;5102748;28;20052;-78
2023/03/26 07:34:50;;;;;;;19.85;2.40;;;7.50;99.90;;;;;;5087861;28;20043;-81
2023/03/26 07:37:47;;;;;;;19.67;2.13;;;7.50;99.90;;;;;;5086909;28;20459;-77
2023/03/26 07:40:37;;;;;;;20.52;2.03;;;7.60;99.90;;;;;;5103109;28;20043;-77
2023/03/26 07:43:39;;;;;;;19.65;3.35;;;7.70;99.90;;;;;;5104435;28;20039;-77
2023/03/26 07:46:11;;;;;;;21.15;2.38;;;7.70;99.90;;;;;;5085878;28;20130;-77
2023/03/26 07:48:42;;;;;;;10.02;1.77;;;7.70;99.90;;;;;;5103524;28;20485;-77
2023/03/26 07:51:09;;;;;;;16.50;2.83;;;7.70;99.90;;;;;;5086295;28;20147;-77
2023/03/26 07:53:35;;;;;;;26.15;2.42;;;7.80;99.90;;;;;;5102504;28;20104;-77
2023/03/26 07:56:14;;;;;;;20.77;2.30;;;7.80;99.90;;;;;;5103818;28;20043;-78
2023/03/26 07:59:17;;;;;;;18.85;2.72;;;8.50;99.90;;;;;;5102397;28;20106;-77
2023/03/26 08:01:55;;;;;;;28.60;3.10;;;8.10;99.90;;;;;;5102844;28;20089;-77
2023/03/26 08:05:01;;;;;;;17.80;2.35;;;8.30;99.90;;;;;;5105201;28;20402;-77
2023/03/26 08:07:51;;;;;;;31.05;1.95;;;8.40;99.90;;;;;;5103157;28;20044;-77
2023/03/26 08:10:26;;;;;;;13.05;1.88;;;8.50;99.90;;;;;;5085131;28;20513;-79
2023/03/26 08:13:17;;;;;;;18.70;4.85;;;8.50;99.90;;;;;;5103509;28;20100;-81
2023/03/26 08:15:59;;;;;;;21.50;1.73;;;8.50;99.90;;;;;;5071338;28;20078;-81
2023/03/26 08:18:26;;;;;;;13.13;2.15;;;8.50;99.90;;;;;;5086070;28;20048;-83
2023/03/26 08:21:15;;;;;;;19.90;2.88;;;9.40;99.90;;;;;;5103234;28;20051;-80
2023/03/26 08:23:52;;;;;;;14.88;1.90;;;8.60;99.90;;;;;;5102473;28;20250;-80
2023/03/26 08:26:38;;;;;;;9.90;1.98;;;8.60;99.90;;;;;;5103308;28;20100;-81
2023/03/26 08:29:19;;;;;;;14.70;1.90;;;8.50;99.90;;;;;;5102940;28;20498;-81
2023/03/26 08:31:46;;;;;;;13.77;1.65;;;8.40;99.90;;;;;;5101808;28;20056;-81
2023/03/26 08:34:13;;;;;;;15.80;2.10;;;9.40;99.90;;;;;;5103635;28;20071;-82
2023/03/26 08:36:38;;;;;;;12.68;1.67;;;9.60;99.90;;;;;;5100986;28;20107;-82
2023/03/26 08:39:05;;;;;;;12.85;1.67;;;9.10;99.90;;;;;;5086129;28;20171;-84
2023/03/26 08:41:43;;;;;;;16.85;1.75;;;9.00;99.90;;;;;;5101865;28;20058;-83
2023/03/26 08:44:36;;;;;;;17.45;2.55;;;9.30;99.90;;;;;;5102117;28;20218;-81
2023/03/26 08:47:31;;;;;;;17.15;2.80;;;9.40;99.90;;;;;;5085325;28;20054;-80
2023/03/26 08:50:30;;;;;;;14.80;2.08;;;9.40;99.90;;;;;;5084986;28;20079;-80
2023/03/26 08:53:13;;;;;;;25.45;2.75;;;9.40;99.90;;;;;;5087151;28;20131;-80
2023/03/26 08:55:51;;;;;;;9.25;1.42;;;9.30;99.90;;;;;;5107554;28;20043;-80
2023/03/26 08:58:44;;;;;;;15.82;1.83;;;9.20;99.90;;;;;;5105491;28;20155;-84
2023/03/26 09:01:28;;;;;;;13.25;1.50;;;9.10;99.90;;;;;;5089844;28;20048;-84
2023/03/26 09:04:18;;;;;;;22.98;2.10;;;8.90;99.90;;;;;;5089627;28;20123;-84
2023/03/26 09:07:15;;;;;;;9.88;1.52;;;8.90;99.90;;;;;;5088378;28;20443;-80
2023/03/26 09:10:22;;;;;;;13.10;1.67;;;9.00;99.90;;;;;;5089029;28;20148;-81
2023/03/26 09:13:14;;;;;;;17.33;3.03;;;9.00;99.90;;;;;;5106685;28;20105;-80
2023/03/26 09:16:14;;;;;;;12.45;1.50;;;9.10;99.90;;;;;;5088362;28;20142;-80
2023/03/26 09:19:24;;;;;;;18.02;1.55;;;9.30;99.90;;;;;;5105446;28;20069;-82
2023/03/26 09:22:27;;;;;;;12.93;2.13;;;9.30;99.90;;;;;;5089598;28;20036;-84
2023/03/26 09:25:12;;;;;;;15.90;2.03;;;9.30;99.90;;;;;;5089290;28;20048;-83
2023/03/26 09:28:13;;;;;;;16.67;1.70;;;9.20;99.90;;;;;;5105470;28;20058;-82
2023/03/26 09:30:46;;;;;;;12.93;3.28;;;9.40;99.90;;;;;;5108555;27;20130;-82
2023/03/26 09:33:34;;;;;;;18.20;2.13;;;9.50;99.90;;;;;;5109126;27;20101;-82
2023/03/26 09:36:18;;;;;;;21.00;2.53;;;9.60;99.90;;;;;;5091622;27;20522;-81
2023/03/26 09:39:08;;;;;;;20.80;2.33;;;9.60;99.90;;;;;;5110012;27;20047;-81
2023/03/26 09:41:42;;;;;;;21.13;3.88;;;9.60;99.90;;;;;;5108620;27;20478;-80
2023/03/26 09:44:50;;;;;;;21.15;2.20;;;9.70;99.90;;;;;;5108969;27;20096;-79
2023/03/26 09:47:26;;;;;;;24.30;2.50;;;9.60;99.90;;;;;;5092019;27;20098;-80
2023/03/26 09:50:16;;;;;;;19.77;1.65;;;9.60;99.90;;;;;;5108061;27;20047;-80
2023/03/26 09:53:01;;;;;;;10.50;1.63;;;9.60;99.90;;;;;;5091573;27;20043;-80
2023/03/26 09:55:55;;;;;;;15.10;2.40;;;9.60;99.90;;;;;;5109149;27;20054;-80
2023/03/26 09:58:36;;;;;;;18.40;2.13;;;9.50;99.90;;;;;;5107804;27;20546;-79
2023/03/26 10:01:09;;;;;;;17.55;2.00;;;9.40;99.90;;;;;;5109327;27;20201;-80
2023/03/26 10:03:59;;;;;;;11.30;1.92;;;9.40;99.90;;;;;;5108386;27;20054;-80
2023/03/26 10:06:57;;;;;;;11.20;1.63;;;9.40;99.90;;;;;;5090909;27;20054;-80
2023/03/26 10:09:29;;;;;;;9.32;1.83;;;9.30;99.90;;;;;;5047748;27;20508;-80
2023/03/26 10:12:03;;;;;;;11.77;1.75;;;9.40;99.90;;;;;;5108789;27;20404;-80
2023/03/26 10:14:38;;;;;;;11.75;1.95;;;9.40;99.90;;;;;;5107992;27;20082;-81
2023/03/26 10:17:24;;;;;;;16.23;2.17;;;9.40;99.90;;;;;;5109051;27;20113;-81
2023/03/26 10:20:27;;;;;;;15.23;1.85;;;9.50;99.90;;;;;;5090797;27;20490;-81
2023/03/26 10:22:59;;;;;;;14.63;1.88;;;9.40;99.90;;;;;;5091184;27;20466;-81
2023/03/26 10:25:32;;;;;;;11.23;2.00;;;9.40;99.90;;;;;;5108587;27;20066;-82
2023/03/26 10:28:08;;;;;;;12.82;1.75;;;9.50;99.90;;;;;;5090194;27;20287;-81
2023/03/26 10:30:53;;;;;;;10.32;1.70;;;9.50;99.90;;;;;;5108805;27;20039;-81
2023/03/26 10:33:44;;;;;;;11.82;1.75;;;9.60;99.90;;;;;;5091118;27;20417;-81
2023/03/26 10:36:45;;;;;;;10.30;1.60;;;9.40;99.90;;;;;;5107250;27;20080;-81
2023/03/26 10:39:29;;;;;;;10.00;1.67;;;9.40;99.90;;;;;;5094475;27;20047;-82
2023/03/26 10:42:04;;;;;;;8.98;1.63;;;9.40;99.90;;;;;;5107982;27;20493;-81
2023/03/26 10:44:53;;;;;;;13.95;1.50;;;8.70;99.90;;;;;;5107562;27;20043;-81
2023/03/26 10:47:25;;;;;;;10.43;1.35;;;9.60;99.90;;;;;;5108755;27;20062;-81
2023/03/26 10:50:34;;;;;;;10.45;1.40;;;9.60;99.90;;;;;;5107019;27;20051;-81
2023/03/26 10:53:09;;;;;;;14.05;1.58;;;9.70;99.90;;;;;;5107285;27;20456;-79
2023/03/26 10:55:40;;;;;;;16.23;2.15;;;9.70;99.90;;;;;;5108497;27;20122;-80
2023/03/26 10:58:24;;;;;;;24.15;1.75;;;9.80;99.90;;;;;;5106464;27;20039;-80
2023/03/26 11:01:01;;;;;;;12.00;2.25;;;9.90;99.90;;;;;;5107753;27;20039;-81
2023/03/26 11:03:30;;;;;;;12.18;1.73;;;10.00;99.90;;;;;;5107441;27;20085;-80
2023/03/26 11:06:14;;;;;;;12.82;2.25;;;10.00;99.90;;;;;;5106934;27;20549;-80
2023/03/26 11:08:51;;;;;;;10.00;1.58;;;9.90;99.90;;;;;;5108461;27;20068;-79
2023/03/26 11:11:30;;;;;;;17.17;2.53;;;9.90;99.90;;;;;;5090163;27;20039;-82
2023/03/26 11:14:18;;;;;;;9.82;1.60;;;9.80;99.90;;;;;;5125482;27;20422;-80
2023/03/26 11:17:02;;;;;;;13.93;1.48;;;9.70;99.90;;;;;;5107110;27;20099;-80
2023/03/26 11:19:41;;;;;;;13.13;3.03;;;9.70;99.90;;;;;;5106105;27;20097;-78
2023/03/26 11:22:16;;;;;;;10.05;1.60;;;9.70;99.90;;;;;;5090703;27;20054;-78
2023/03/26 11:24:44;;;;;;;9.57;1.42;;;9.70;99.90;;;;;;5090146;27;20614;-79
2023/03/26 11:27:33;;;;;;;15.00;2.60;;;9.70;99.90;;;;;;5106595;27;20040;-79
2023/03/26 11:30:08;;;;;;;8.68;1.30;;;9.60;99.90;;;;;;5086733;27;20051;-79
2023/03/26 11:32:54;;;;;;;12.48;1.13;;;9.60;99.90;;;;;;5102492;28;20444;-79
2023/03/26 11:35:41;;;;;;;12.52;1.80;;;9.60;99.90;;;;;;5103849;28;20104;-79
2023/03/26 11:38:12;;;;;;;12.02;1.30;;;9.50;99.90;;;;;;5103878;28;20050;-81
2023/03/26 11:40:49;;;;;;;11.07;1.52;;;9.30;99.90;;;;;;5102620;28;20044;-88
2023/03/26 11:43:19;;;;;;;12.32;1.90;;;9.30;99.90;;;;;;5087245;28;20151;-80
2023/03/26 11:45:47;;;;;;;14.00;1.40;;;9.80;99.90;;;;;;5086179;28;20086;-83
2023/03/26 11:48:41;;;;;;;9.30;1.63;;;9.70;99.90;;;;;;5086544;28;20048;-81
2023/03/26 11:51:09;;;;;;;;;;;10.10;99.90;;;;;;5087353;28;20141;-81
2023/03/26 11:53:37;;;;;;;14.55;1.98;;;10.00;99.90;;;;;;5084847;28;19919;-80
2023/03/26 11:56:27;;;;;;;15.68;1.50;;;10.70;99.90;;;;;;5070926;28;20082;-80
2023/03/26 11:59:04;;;;;;;9.18;2.33;;;10.80;99.90;;;;;;5103676;28;20395;-80
2023/03/26 12:02:08;;;;;;;5.50;1.17;;;10.80;99.90;;;;;;5103073;28;20556;-80
2023/03/26 12:04:40;;;;;;;9.02;1.27;;;10.60;99.90;;;;;;5108069;27;20055;-80
2023/03/26 12:07:07;;;;;;;9.43;1.25;;;10.50;99.90;;;;;;5085341;28;20130;-79
2023/03/26 12:09:33;;;;;;;10.57;1.17;;;10.30;99.90;;;;;;5085886;28;20032;-79
2023/03/26 12:12:02;;;;;;;9.60;1.35;;;10.90;99.90;;;;;;5085756;28;20074;-79
2023/03/26 12:14:31;;;;;;;14.38;2.55;;;10.10;99.90;;;;;;5102555;28;20043;-79
2023/03/26 12:17:11;;;;;;;12.65;1.73;;;10.00;99.90;;;;;;5103639;28;20479;-79
2023/03/26 12:19:43;;;;;;;14.73;1.70;;;9.90;99.90;;;;;;5101778;28;20470;-79
2023/03/26 12:22:37;;;;;;;10.90;1.45;;;9.80;99.90;;;;;;5085882;28;20487;-79
2023/03/26 12:25:21;;;;;;;11.43;1.52;;;9.70;99.90;;;;;;5102899;28;20509;-79
2023/03/26 12:27:50;;;;;;;10.88;1.13;;;9.60;99.90;;;;;;5101471;28;20050;-79
2023/03/26 12:30:24;;;;;;;12.07;1.52;;;9.60;99.90;;;;;;5103403;28;20035;-79
2023/03/26 12:32:55;;;;;;;15.35;1.80;;;9.70;99.90;;;;;;5102020;28;20074;-79
2023/03/26 12:35:29;;;;;;;12.70;1.45;;;10.00;99.90;;;;;;5102224;28;20614;-78
2023/03/26 12:38:12;;;;;;;8.73;1.50;;;10.50;99.90;;;;;;5103071;28;20494;-78
2023/03/26 12:40:41;;;;;;;8.32;1.30;;;10.90;99.90;;;;;;5101758;28;20368;-79
2023/03/26 12:43:21;;;;;;;19.67;2.60;;;11.70;99.90;;;;;;5103367;28;20048;-78
2023/03/26 12:45:52;;;;;;;11.25;1.98;;;11.10;99.90;;;;;;5102535;28;20071;-79
2023/03/26 12:48:19;;;;;;;11.18;2.05;;;11.10;99.90;;;;;;5102243;28;20059;-78
2023/03/26 12:50:56;;;;;;;8.38;1.17;;;11.10;99.90;;;;;;5102943;28;20054;-79
2023/03/26 12:53:51;;;;;;;9.50;1.30;;;10.90;98.30;;;;;;5101708;28;20127;-78
2023/03/26 12:56:35;;;;;;;12.30;1.42;;;10.00;97.70;;;;;;5102587;28;20119;-78
2023/03/26 12:59:20;;;;;;;8.27;1.13;;;10.40;97.80;;;;;;5102676;28;20043;-78
2023/03/26 13:01:56;;;;;;;10.23;1.48;;;10.30;98.80;;;;;;5101607;28;20074;-78
2023/03/26 13:04:47;;;;;;;13.43;1.55;;;10.10;98.30;;;;;;5103269;28;20044;-79
2023/03/26 13:07:30;;;;;;;7.93;1.70;;;10.00;99.20;;;;;;5085728;28;20134;-79
2023/03/26 13:10:24;;;;;;;21.88;2.00;;;9.70;99.50;;;;;;5085545;28;20047;-78
2023/03/26 13:13:01;;;;;;;9.77;1.38;;;9.60;99.90;;;;;;5103079;28;20112;-78
2023/03/26 13:15:37;;;;;;;15.93;1.70;;;9.50;99.90;;;;;;5101501;28;20082;-78
2023/03/26 13:18:31;;;;;;;12.10;1.38;;;9.90;99.90;;;;;;5086091;28;20050;-78
2023/03/26 13:21:03;;;;;;;18.48;1.92;;;9.40;99.90;;;;;;5086018;28;20460;-79
2023/03/26 13:23:49;;;;;;;9.60;1.52;;;9.40;99.90;;;;;;5100937;28;20375;-79